Time;durP1;ratioP1;P1;durP2;ratioP2;P2;SDS_P1;SDS_P2;PMS_P1;PMS_P2;Temp;Humidity;BMP_temperature;BMP_pressure;BME280_temperature;BME280_humidity;BME280_pressure;Samples;Min_cycle;Max_cycle;Signal;HPM_P1;HPM_P2
2023/04/11 00:00:08;;;;;;;8.13;1.27;;;9.20;99.90;;;;;;5068698;28;20098;-84
2023/04/11 00:02:34;;;;;;;4.47;1.30;;;9.10;99.90;;;;;;5043859;28;20494;-84
2023/04/11 00:05:01;;;;;;;3.97;0.90;;;9.10;99.90;;;;;;5048213;28;20048;-83
2023/04/11 00:07:27;;;;;;;6.70;1.58;;;9.00;99.90;;;;;;5068386;28;20478;-83
2023/04/11 00:09:53;;;;;;;3.92;1.67;;;9.00;99.90;;;;;;5048126;28;20055;-83
2023/04/11 00:12:19;;;;;;;4.25;1.15;;;8.90;99.90;;;;;;5050542;28;20137;-83
2023/04/11 00:14:47;;;;;;;9.75;1.55;;;8.90;99.90;;;;;;5036085;28;20490;-84
2023/04/11 00:17:14;;;;;;;5.45;1.40;;;8.90;99.90;;;;;;5067585;28;20131;-83
2023/04/11 00:19:42;;;;;;;5.65;1.23;;;8.90;99.90;;;;;;5071145;28;20507;-83
2023/04/11 00:22:09;;;;;;;5.43;1.40;;;8.80;99.90;;;;;;5067026;28;20059;-83
2023/04/11 00:24:35;;;;;;;5.78;1.55;;;8.80;99.90;;;;;;5054623;28;20479;-84
2023/04/11 00:27:01;;;;;;;6.50;1.55;;;8.80;99.90;;;;;;5057916;28;20036;-84
2023/04/11 00:29:27;;;;;;;8.05;1.35;;;8.90;99.90;;;;;;5055537;28;20041;-84
2023/04/11 00:31:54;;;;;;;7.30;1.15;;;8.80;99.90;;;;;;5056250;28;20470;-84
2023/04/11 00:34:21;;;;;;;6.47;1.55;;;8.80;99.90;;;;;;5076566;28;20110;-83
2023/04/11 00:36:47;;;;;;;5.00;1.20;;;8.70;99.90;;;;;;5075807;28;20082;-83
2023/04/11 00:39:13;;;;;;;8.15;1.33;;;8.70;99.90;;;;;;5068339;28;20052;-83
2023/04/11 00:41:39;;;;;;;5.70;1.25;;;8.70;99.90;;;;;;5033460;28;20077;-83
2023/04/11 00:44:05;;;;;;;8.05;1.30;;;8.60;99.90;;;;;;5032057;28;20101;-84
2023/04/11 00:46:32;;;;;;;5.32;1.30;;;8.60;99.90;;;;;;5067831;28;20043;-84
2023/04/11 00:48:58;;;;;;;7.13;1.13;;;8.60;99.90;;;;;;5062663;28;20086;-82
2023/04/11 00:51:25;;;;;;;7.45;1.30;;;8.60;99.90;;;;;;5053299;28;20152;-84
2023/04/11 00:53:51;;;;;;;8.13;1.70;;;8.50;99.90;;;;;;5053421;28;20035;-83
2023/04/11 00:56:17;;;;;;;6.13;1.20;;;8.50;99.90;;;;;;5050678;28;20041;-83
2023/04/11 00:58:44;;;;;;;8.40;1.45;;;8.50;99.90;;;;;;5052755;28;20074;-82
2023/04/11 01:01:09;;;;;;;8.25;1.42;;;8.50;99.90;;;;;;5034693;28;20996;-83
2023/04/11 01:03:37;;;;;;;11.10;1.55;;;8.50;99.90;;;;;;5049558;28;20098;-83
2023/04/11 01:06:06;;;;;;;5.32;1.33;;;8.50;99.90;;;;;;5048103;28;20578;-84
2023/04/11 01:08:33;;;;;;;12.52;2.92;;;8.50;99.90;;;;;;5053928;28;20048;-83
2023/04/11 01:11:01;;;;;;;7.13;1.15;;;8.50;99.90;;;;;;5073057;28;20062;-83
2023/04/11 01:13:32;;;;;;;7.18;1.45;;;8.40;99.90;;;;;;5067179;28;20040;-83
2023/04/11 01:15:59;;;;;;;7.47;1.48;;;8.40;99.90;;;;;;5039597;28;20098;-83
2023/04/11 01:18:25;;;;;;;8.38;1.45;;;8.30;99.90;;;;;;5049455;28;20126;-83
2023/04/11 01:20:52;;;;;;;6.20;1.20;;;8.30;99.90;;;;;;5073192;28;20046;-83
2023/04/11 01:23:22;;;;;;;5.85;1.42;;;8.20;99.90;;;;;;5055766;28;20044;-83
2023/04/11 01:25:48;;;;;;;6.95;1.40;;;8.20;99.90;;;;;;5046017;28;20041;-84
2023/04/11 01:28:14;;;;;;;6.45;1.50;;;8.20;99.90;;;;;;5068045;28;20120;-83
2023/04/11 01:30:40;;;;;;;8.20;1.55;;;8.20;99.90;;;;;;5051499;28;20040;-83
2023/04/11 01:33:06;;;;;;;6.13;1.40;;;8.20;99.90;;;;;;5046820;28;20387;-83
2023/04/11 01:35:31;;;;;;;6.93;1.40;;;8.10;99.90;;;;;;5063503;28;20461;-83
2023/04/11 01:37:57;;;;;;;6.75;1.38;;;8.10;99.90;;;;;;5049079;28;20566;-83
2023/04/11 01:40:23;;;;;;;7.75;1.10;;;8.10;99.90;;;;;;5066496;28;20756;-84
2023/04/11 01:42:50;;;;;;;7.70;1.50;;;8.10;99.90;;;;;;5046028;28;20060;-83
2023/04/11 01:45:17;;;;;;;6.93;1.35;;;8.10;99.90;;;;;;5049257;28;20052;-83
2023/04/11 01:47:43;;;;;;;7.78;1.38;;;8.10;99.90;;;;;;5066858;28;20041;-83
2023/04/11 01:50:10;;;;;;;7.40;1.30;;;8.00;99.90;;;;;;5049451;28;20043;-84
2023/04/11 01:52:36;;;;;;;9.90;1.50;;;8.00;99.90;;;;;;5046302;28;20403;-83
2023/04/11 01:55:02;;;;;;;9.02;1.25;;;8.10;99.90;;;;;;5065957;28;20612;-83
2023/04/11 01:57:28;;;;;;;6.13;1.70;;;8.10;99.90;;;;;;5047525;28;20452;-83
2023/04/11 01:59:54;;;;;;;8.15;1.50;;;8.10;99.90;;;;;;5047361;28;20075;-83
2023/04/11 02:02:19;;;;;;;7.97;1.40;;;8.10;99.90;;;;;;5067293;28;20118;-83
2023/04/11 02:04:45;;;;;;;7.65;1.65;;;8.10;99.90;;;;;;5040399;28;20052;-84
2023/04/11 02:07:11;;;;;;;6.88;1.65;;;8.10;99.90;;;;;;5064120;28;20056;-83
2023/04/11 02:09:37;;;;;;;6.97;1.20;;;8.10;99.90;;;;;;5074343;28;20127;-84
2023/04/11 02:12:03;;;;;;;8.38;1.30;;;8.30;99.90;;;;;;5048829;28;20132;-84
2023/04/11 02:14:40;;;;;;;7.15;1.55;;;8.10;99.90;;;;;;5076774;28;20043;-84
2023/04/11 02:17:08;;;;;;;8.07;1.05;;;8.10;99.90;;;;;;5066747;28;20046;-84
2023/04/11 02:19:40;;;;;;;9.88;1.67;;;8.10;99.90;;;;;;5071878;28;20181;-83
2023/04/11 02:22:07;;;;;;;7.80;1.42;;;8.10;99.90;;;;;;5048925;28;20044;-83
2023/04/11 02:24:34;;;;;;;6.20;0.95;;;8.10;99.90;;;;;;5045368;28;20063;-84
2023/04/11 02:27:00;;;;;;;5.10;1.27;;;8.10;99.90;;;;;;5031421;28;20051;-84
2023/04/11 02:29:27;;;;;;;10.73;1.33;;;8.10;99.90;;;;;;5069291;28;20775;-84
2023/04/11 02:31:53;;;;;;;5.63;1.05;;;8.10;99.90;;;;;;5034202;28;20080;-84
2023/04/11 02:34:19;;;;;;;6.80;1.25;;;8.10;99.90;;;;;;5061861;28;20128;-84
2023/04/11 02:36:45;;;;;;;6.75;1.10;;;8.10;99.90;;;;;;5067414;28;20032;-84
2023/04/11 02:39:11;;;;;;;6.90;1.10;;;8.10;99.90;;;;;;5063516;28;20044;-84
2023/04/11 02:41:43;;;;;;;9.40;1.60;;;8.10;99.90;;;;;;5053812;28;20068;-84
2023/04/11 02:44:09;;;;;;;4.68;0.80;;;8.10;99.90;;;;;;5067843;28;20140;-83
2023/04/11 02:46:35;;;;;;;7.50;0.90;;;8.10;99.90;;;;;;5060770;28;20060;-84
2023/04/11 02:49:01;;;;;;;5.85;1.02;;;8.10;99.90;;;;;;5044693;28;20047;-83
2023/04/11 02:51:27;;;;;;;5.60;0.98;;;8.10;99.90;;;;;;5063445;28;20100;-84
2023/04/11 02:53:53;;;;;;;4.18;0.90;;;8.10;99.90;;;;;;5049684;28;20545;-84
2023/04/11 02:56:19;;;;;;;3.78;1.05;;;8.10;99.90;;;;;;5031000;28;20812;-84
2023/04/11 02:58:45;;;;;;;3.22;1.00;;;8.10;99.90;;;;;;5063197;28;20051;-84
2023/04/11 03:01:15;;;;;;;3.65;1.00;;;8.00;99.90;;;;;;5044047;28;20041;-84
2023/04/11 03:03:42;;;;;;;3.45;0.70;;;8.10;99.90;;;;;;5062625;28;20063;-84
2023/04/11 03:06:08;;;;;;;8.40;0.75;;;8.00;99.90;;;;;;5050193;28;20086;-84
2023/04/11 03:08:38;;;;;;;4.13;0.60;;;8.00;99.90;;;;;;5031953;28;20048;-84
2023/04/11 03:11:05;;;;;;;4.90;0.75;;;8.00;99.90;;;;;;5030240;28;20060;-84
2023/04/11 03:13:31;;;;;;;6.25;1.38;;;8.00;99.90;;;;;;5067017;28;20039;-84
2023/04/11 03:15:56;;;;;;;2.63;1.15;;;8.00;99.90;;;;;;5063261;28;20032;-83
2023/04/11 03:18:22;;;;;;;4.72;1.05;;;8.00;99.90;;;;;;5061863;28;20038;-83
2023/04/11 03:20:49;;;;;;;4.10;0.80;;;7.90;99.90;;;;;;5067186;28;20143;-83
2023/04/11 03:23:15;;;;;;;3.40;0.70;;;7.90;99.90;;;;;;5050644;28;20036;-83
2023/04/11 03:25:43;;;;;;;4.28;0.80;;;7.90;99.90;;;;;;5045968;28;20040;-83
2023/04/11 03:28:09;;;;;;;6.93;0.68;;;7.90;99.90;;;;;;5032626;28;20584;-83
2023/04/11 03:30:39;;;;;;;5.53;0.65;;;7.90;99.90;;;;;;5067976;28;20083;-84
2023/04/11 03:33:08;;;;;;;6.78;0.90;;;7.80;99.90;;;;;;5029003;28;20078;-83
2023/04/11 03:35:34;;;;;;;3.90;1.00;;;7.80;99.90;;;;;;5044217;28;20103;-84
2023/04/11 03:38:00;;;;;;;5.88;1.05;;;7.90;99.90;;;;;;5067163;28;20071;-83
2023/04/11 03:40:25;;;;;;;4.60;0.90;;;7.80;99.90;;;;;;5066911;28;20135;-83
2023/04/11 03:42:51;;;;;;;7.80;1.08;;;7.80;99.90;;;;;;5049008;28;20101;-83
2023/04/11 03:45:17;;;;;;;2.78;0.90;;;7.80;99.90;;;;;;5061032;28;20044;-83
2023/04/11 03:47:43;;;;;;;5.57;0.90;;;7.80;99.90;;;;;;5069963;28;20089;-83
2023/04/11 03:50:09;;;;;;;5.63;1.10;;;7.80;99.90;;;;;;5070449;28;20049;-83
2023/04/11 03:52:35;;;;;;;6.05;1.40;;;7.80;99.90;;;;;;5043390;28;20059;-83
2023/04/11 03:55:01;;;;;;;9.57;1.15;;;7.80;99.90;;;;;;5031518;28;20056;-84
2023/04/11 03:57:27;;;;;;;6.70;1.23;;;7.80;99.90;;;;;;5046328;28;20434;-83
2023/04/11 03:59:54;;;;;;;6.75;0.98;;;7.80;99.90;;;;;;5051332;28;20486;-84
2023/04/11 04:02:20;;;;;;;5.10;1.20;;;7.80;99.90;;;;;;5061903;28;20040;-83
2023/04/11 04:04:47;;;;;;;5.20;1.27;;;7.80;99.90;;;;;;5064403;28;20090;-84
2023/04/11 04:07:13;;;;;;;8.65;1.15;;;7.80;99.90;;;;;;5043252;28;20061;-83
2023/04/11 04:09:40;;;;;;;5.05;1.27;;;7.90;99.90;;;;;;5047609;28;20079;-83
2023/04/11 04:12:06;;;;;;;8.40;1.55;;;7.90;99.90;;;;;;5035150;28;20041;-83
2023/04/11 04:14:32;;;;;;;4.40;1.17;;;7.90;99.90;;;;;;5067433;28;20711;-84
2023/04/11 04:16:58;;;;;;;11.02;1.92;;;7.90;99.90;;;;;;5029521;28;20040;-84
2023/04/11 04:19:25;;;;;;;9.63;1.65;;;7.90;99.90;;;;;;5064979;28;20376;-84
2023/04/11 04:21:50;;;;;;;7.88;1.50;;;7.90;99.90;;;;;;5049389;28;20063;-84
2023/04/11 04:24:16;;;;;;;12.10;1.92;;;7.90;99.90;;;;;;5068257;28;20585;-84
2023/04/11 04:26:42;;;;;;;7.30;2.00;;;7.90;99.90;;;;;;5063091;28;20041;-83
2023/04/11 04:29:09;;;;;;;5.78;1.55;;;7.90;99.90;;;;;;5062214;28;20124;-84
2023/04/11 04:31:35;;;;;;;6.82;1.42;;;8.00;99.90;;;;;;5061774;28;20044;-84
2023/04/11 04:34:02;;;;;;;5.70;1.35;;;8.00;99.90;;;;;;5061932;28;20041;-83
2023/04/11 04:36:29;;;;;;;10.27;1.77;;;8.00;99.90;;;;;;5061413;28;20040;-83
2023/04/11 04:39:00;;;;;;;11.57;2.08;;;8.00;99.90;;;;;;5033341;28;20060;-83
2023/04/11 04:41:32;;;;;;;11.50;1.60;;;8.00;99.90;;;;;;5064165;28;20032;-83
2023/04/11 04:43:58;;;;;;;9.40;1.83;;;8.00;99.90;;;;;;5028348;28;20048;-83
2023/04/11 04:46:24;;;;;;;10.07;2.00;;;8.00;99.90;;;;;;5048733;28;20040;-83
2023/04/11 04:48:49;;;;;;;12.10;2.10;;;8.00;99.90;;;;;;5051443;28;20052;-84
2023/04/11 04:51:15;;;;;;;9.68;2.13;;;8.00;99.90;;;;;;5049199;28;20402;-83
2023/04/11 04:53:41;;;;;;;11.20;2.33;;;8.00;99.90;;;;;;5030608;28;20044;-83
2023/04/11 04:56:07;;;;;;;10.65;2.63;;;8.00;99.90;;;;;;5069490;28;20064;-82
2023/04/11 04:58:33;;;;;;;8.77;2.35;;;8.00;99.90;;;;;;5065328;28;20033;-83
2023/04/11 05:01:01;;;;;;;11.63;2.40;;;8.00;99.90;;;;;;5068641;28;20768;-84
2023/04/11 05:03:27;;;;;;;7.63;2.35;;;8.00;99.90;;;;;;5051545;28;20067;-84
2023/04/11 05:05:53;;;;;;;10.95;2.35;;;8.10;99.90;;;;;;5036271;28;20094;-84
2023/04/11 05:08:21;;;;;;;8.77;2.30;;;8.10;99.90;;;;;;5068629;28;20044;-83
2023/04/11 05:10:52;;;;;;;9.63;2.22;;;8.00;99.90;;;;;;5068843;28;20104;-84
2023/04/11 05:13:19;;;;;;;11.27;2.95;;;8.40;99.90;;;;;;5050471;28;20040;-84
2023/04/11 05:15:54;;;;;;;14.45;2.25;;;8.00;99.90;;;;;;5069551;28;20032;-84
2023/04/11 05:18:22;;;;;;;7.00;2.42;;;8.00;99.90;;;;;;5064371;28;20536;-85
2023/04/11 05:20:51;;;;;;;11.30;2.58;;;8.00;99.90;;;;;;5047773;28;20040;-85
2023/04/11 05:23:17;;;;;;;10.60;2.35;;;8.00;99.90;;;;;;5050209;28;20047;-84
2023/04/11 05:25:43;;;;;;;12.55;2.28;;;8.00;99.90;;;;;;5048450;28;20033;-85
2023/04/11 05:28:08;;;;;;;8.15;2.30;;;8.00;99.90;;;;;;5044866;28;20339;-84
2023/04/11 05:30:34;;;;;;;11.73;1.90;;;8.00;99.90;;;;;;5048942;28;20040;-85
2023/04/11 05:33:00;;;;;;;9.38;2.10;;;8.00;99.90;;;;;;5049485;28;20478;-85
2023/04/11 05:35:25;;;;;;;11.13;2.05;;;8.00;99.90;;;;;;5030632;28;20520;-86
2023/04/11 05:37:51;;;;;;;9.57;2.35;;;8.00;99.90;;;;;;5068441;28;20035;-85
2023/04/11 05:40:17;;;;;;;8.68;1.75;;;8.00;99.90;;;;;;5067405;28;20055;-85
2023/04/11 05:42:46;;;;;;;10.80;2.65;;;8.00;99.90;;;;;;5046261;28;20048;-86
2023/04/11 05:45:11;;;;;;;9.85;2.33;;;8.00;99.90;;;;;;5075360;28;20055;-86
2023/04/11 05:47:37;;;;;;;12.48;2.10;;;8.00;99.90;;;;;;5044135;28;20049;-94
2023/04/11 05:50:03;;;;;;;10.73;2.08;;;8.00;99.90;;;;;;5043019;28;20048;-87
2023/04/11 05:52:29;;;;;;;7.63;1.98;;;8.00;99.90;;;;;;5042054;28;20051;-92
2023/04/11 05:54:55;;;;;;;9.07;1.88;;;8.00;99.90;;;;;;5072164;28;20601;-94
2023/04/11 05:57:22;;;;;;;16.02;2.90;;;8.00;99.90;;;;;;5030874;28;20044;-90
2023/04/11 05:59:51;;;;;;;8.02;2.00;;;8.00;99.90;;;;;;5036084;28;20036;-90
2023/04/11 06:02:17;;;;;;;9.38;2.33;;;8.70;99.90;;;;;;5041296;28;20078;-88
2023/04/11 06:04:43;;;;;;;8.18;2.33;;;7.90;99.90;;;;;;5057263;28;20422;-86
2023/04/11 06:07:09;;;;;;;8.98;2.10;;;7.90;99.90;;;;;;5048358;28;20518;-86
2023/04/11 06:09:35;;;;;;;12.13;2.55;;;8.00;99.90;;;;;;5051517;28;20057;-93
2023/04/11 06:12:02;;;;;;;11.18;2.70;;;8.00;99.90;;;;;;5036733;28;20043;-83
2023/04/11 06:14:28;;;;;;;12.45;2.13;;;8.00;99.90;;;;;;5059668;28;20119;-86
2023/04/11 06:16:53;;;;;;;8.32;2.30;;;8.00;99.90;;;;;;5050918;28;20145;-85
2023/04/11 06:19:22;;;;;;;12.05;3.55;;;8.00;99.90;;;;;;5044117;28;20040;-84
2023/04/11 06:21:48;;;;;;;11.93;2.42;;;8.00;99.90;;;;;;5045696;28;20044;-84
2023/04/11 06:24:17;;;;;;;8.80;1.63;;;8.10;99.90;;;;;;5032777;28;20080;-85
2023/04/11 06:26:43;;;;;;;9.02;2.22;;;8.10;99.90;;;;;;5046498;28;20041;-86
2023/04/11 06:29:09;;;;;;;9.85;2.20;;;8.10;99.90;;;;;;5031203;28;20052;-85
2023/04/11 06:31:35;;;;;;;11.80;1.95;;;8.10;99.90;;;;;;5051494;28;20060;-85
2023/04/11 06:34:01;;;;;;;10.82;1.92;;;8.20;99.90;;;;;;5059642;28;20041;-92
2023/04/11 06:36:27;;;;;;;10.93;2.20;;;8.20;99.90;;;;;;5041266;28;20076;-95
2023/04/11 06:38:53;;;;;;;7.55;2.30;;;8.20;99.90;;;;;;5048662;28;20040;-89
2023/04/11 06:41:19;;;;;;;6.55;2.03;;;8.20;99.90;;;;;;5028750;28;20086;-85
2023/04/11 06:43:45;;;;;;;10.23;2.60;;;8.30;99.90;;;;;;5050465;28;20535;-86
2023/04/11 06:46:10;;;;;;;8.07;1.85;;;8.30;99.90;;;;;;5050451;28;20529;-85
2023/04/11 06:48:36;;;;;;;10.15;2.33;;;8.30;99.90;;;;;;5045748;28;20111;-85
2023/04/11 06:51:02;;;;;;;10.85;2.53;;;8.40;99.90;;;;;;5040389;28;20049;-85
2023/04/11 06:53:27;;;;;;;9.45;2.05;;;8.40;99.90;;;;;;5053591;28;20280;-85
2023/04/11 06:55:53;;;;;;;8.98;2.33;;;8.40;99.90;;;;;;5048058;28;20037;-84
2023/04/11 06:58:19;;;;;;;10.32;2.45;;;8.40;99.90;;;;;;5042915;28;20140;-84
2023/04/11 07:00:44;;;;;;;12.38;2.17;;;8.40;99.90;;;;;;5049378;28;20044;-85
2023/04/11 07:03:11;;;;;;;13.18;2.63;;;8.40;99.90;;;;;;5046717;28;20442;-85
2023/04/11 07:05:36;;;;;;;11.98;2.47;;;8.50;99.90;;;;;;5044755;28;20047;-83
2023/04/11 07:08:02;;;;;;;9.48;1.92;;;8.50;99.90;;;;;;5043260;28;20052;-83
2023/04/11 07:10:28;;;;;;;8.48;1.63;;;8.50;99.90;;;;;;5047650;28;20040;-84
2023/04/11 07:12:54;;;;;;;7.57;1.48;;;8.40;99.90;;;;;;5029965;28;20103;-83
2023/04/11 07:15:22;;;;;;;5.60;1.23;;;8.40;99.90;;;;;;5041308;28;20045;-83
2023/04/11 07:17:52;;;;;;;9.05;2.03;;;8.20;99.90;;;;;;5041602;28;20052;-84
2023/04/11 07:20:17;;;;;;;10.07;2.50;;;8.10;99.90;;;;;;5042985;28;20045;-83
2023/04/11 07:22:43;;;;;;;8.30;1.65;;;8.10;99.90;;;;;;5040419;28;20449;-83
2023/04/11 07:25:09;;;;;;;15.55;2.30;;;8.10;99.90;;;;;;5038426;28;20124;-83
2023/04/11 07:27:35;;;;;;;12.15;2.28;;;8.20;99.90;;;;;;5041909;28;20040;-86
2023/04/11 07:30:02;;;;;;;13.98;2.33;;;8.30;99.90;;;;;;5048046;28;20565;-84
2023/04/11 07:32:27;;;;;;;12.65;2.13;;;8.40;99.90;;;;;;5044852;28;20485;-84
2023/04/11 07:34:53;;;;;;;22.92;2.58;;;8.50;99.90;;;;;;5042196;28;20041;-83
2023/04/11 07:37:19;;;;;;;11.07;1.60;;;8.70;99.90;;;;;;5040384;28;20461;-84
2023/04/11 07:39:45;;;;;;;21.13;1.98;;;8.60;99.90;;;;;;5046215;28;20460;-84
2023/04/11 07:42:10;;;;;;;10.57;1.80;;;8.70;99.90;;;;;;5041262;28;20593;-84
2023/04/11 07:44:36;;;;;;;11.77;2.35;;;8.80;99.90;;;;;;5026682;28;20148;-83
2023/04/11 07:47:02;;;;;;;10.27;2.35;;;8.80;99.90;;;;;;5044676;28;20040;-84
2023/04/11 07:49:28;;;;;;;14.00;1.90;;;8.80;99.90;;;;;;5044169;28;20036;-84
2023/04/11 07:51:54;;;;;;;9.18;1.90;;;8.80;99.90;;;;;;5040260;28;20466;-83
2023/04/11 07:54:19;;;;;;;10.82;1.90;;;8.80;99.90;;;;;;5041930;28;20446;-83
2023/04/11 07:56:45;;;;;;;11.88;2.00;;;8.90;99.90;;;;;;5045510;28;20553;-84
2023/04/11 07:59:14;;;;;;;11.38;2.28;;;8.90;99.90;;;;;;5053474;28;20114;-83
2023/04/11 08:01:40;;;;;;;10.18;1.88;;;9.00;99.90;;;;;;5031538;28;20475;-85
2023/04/11 08:04:06;;;;;;;8.82;1.95;;;9.00;99.90;;;;;;5045824;28;20044;-83
2023/04/11 08:06:32;;;;;;;8.40;1.70;;;9.10;99.90;;;;;;5048061;28;20104;-84
2023/04/11 08:08:59;;;;;;;8.13;2.25;;;9.00;99.90;;;;;;5045950;28;20057;-84
2023/04/11 08:11:25;;;;;;;8.02;1.92;;;9.00;99.90;;;;;;5042669;28;20789;-84
2023/04/11 08:13:51;;;;;;;11.85;2.40;;;9.00;99.90;;;;;;5027887;28;20573;-84
2023/04/11 08:16:17;;;;;;;11.73;1.77;;;9.00;99.90;;;;;;5044916;28;20037;-84
2023/04/11 08:18:44;;;;;;;9.38;2.20;;;9.10;99.90;;;;;;5055461;28;20466;-83
2023/04/11 08:21:11;;;;;;;11.60;2.17;;;9.10;99.90;;;;;;5048533;28;20442;-84
2023/04/11 08:23:38;;;;;;;9.77;1.48;;;9.10;99.90;;;;;;5049979;28;20075;-84
2023/04/11 08:26:05;;;;;;;8.35;1.52;;;9.20;99.90;;;;;;5047144;28;20166;-83
2023/04/11 08:28:31;;;;;;;10.73;1.83;;;9.20;99.90;;;;;;5050670;28;20925;-82
2023/04/11 08:30:57;;;;;;;8.60;1.55;;;9.30;99.90;;;;;;5025646;28;20131;-83
2023/04/11 08:33:25;;;;;;;8.50;1.40;;;9.30;99.90;;;;;;5053367;28;20441;-83
2023/04/11 08:35:50;;;;;;;6.70;1.50;;;9.40;99.90;;;;;;5033460;28;20127;-84
2023/04/11 08:38:16;;;;;;;10.13;2.65;;;9.50;99.90;;;;;;5052195;28;20147;-93
2023/04/11 08:40:43;;;;;;;9.10;1.95;;;9.50;99.90;;;;;;5054639;28;20487;-83
2023/04/11 08:43:11;;;;;;;8.85;1.60;;;9.50;99.90;;;;;;5058621;28;20050;-84
2023/04/11 08:45:40;;;;;;;6.97;1.60;;;9.60;99.90;;;;;;5046973;28;20498;-83
2023/04/11 08:48:07;;;;;;;12.07;1.90;;;9.80;99.90;;;;;;5047366;28;20040;-84
2023/04/11 08:50:34;;;;;;;12.50;1.85;;;9.70;99.90;;;;;;5048248;28;20514;-84
2023/04/11 08:53:03;;;;;;;10.82;1.58;;;9.90;99.90;;;;;;5050117;28;20100;-84
2023/04/11 08:55:29;;;;;;;23.98;2.22;;;9.90;99.90;;;;;;5048299;28;20052;-84
2023/04/11 08:57:58;;;;;;;8.95;1.45;;;10.00;99.90;;;;;;5050823;28;20083;-84
2023/04/11 09:00:27;;;;;;;10.07;1.60;;;10.10;99.90;;;;;;5056439;28;20119;-83
2023/04/11 09:03:00;;;;;;;6.57;1.30;;;10.20;99.90;;;;;;5044382;28;20495;-84
2023/04/11 09:05:35;;;;;;;9.73;1.65;;;10.10;99.90;;;;;;5047283;28;20036;-84
2023/04/11 09:08:06;;;;;;;8.57;1.52;;;10.10;99.90;;;;;;5034561;28;20065;-92
2023/04/11 09:10:33;;;;;;;7.13;1.48;;;10.00;99.90;;;;;;5056866;28;20045;-92
2023/04/11 09:13:01;;;;;;;7.68;1.48;;;10.00;99.90;;;;;;5042565;28;20040;-93
2023/04/11 09:15:28;;;;;;;14.75;1.38;;;10.70;99.90;;;;;;5038185;28;20040;-91
2023/04/11 09:17:56;;;;;;;6.13;1.40;;;10.20;99.90;;;;;;5057181;28;20049;-90
2023/04/11 09:20:30;;;;;;;5.95;1.10;;;10.20;99.90;;;;;;5033742;28;20345;-92
2023/04/11 09:23:06;;;;;;;2.25;0.52;;;10.00;99.90;;;;;;5062537;28;20044;-92
2023/04/11 09:25:43;;;;;;;4.18;1.02;;;9.80;99.90;;;;;;5055462;28;20040;-91
2023/04/11 09:28:09;;;;;;;5.05;0.75;;;9.40;99.90;;;;;;5038899;28;20136;-89
2023/04/11 09:30:35;;;;;;;6.95;1.05;;;9.50;99.90;;;;;;5054859;28;20134;-84
2023/04/11 09:33:19;;;;;;;11.82;1.10;;;9.40;99.90;;;;;;5049480;28;20032;-84
2023/04/11 09:35:48;;;;;;;3.83;0.63;;;9.10;99.90;;;;;;5050488;28;20075;-83
2023/04/11 09:38:25;;;;;;;5.07;0.95;;;9.20;99.90;;;;;;5057163;28;20052;-81
2023/04/11 09:40:52;;;;;;;6.25;1.08;;;9.20;99.90;;;;;;5057380;28;20040;-85
2023/04/11 09:43:17;;;;;;;9.18;1.20;;;9.10;99.90;;;;;;5034439;28;20134;-85
2023/04/11 09:45:45;;;;;;;10.18;1.23;;;9.10;99.90;;;;;;5050695;28;20088;-84
2023/04/11 09:48:12;;;;;;;7.68;1.40;;;9.40;99.90;;;;;;5052431;28;20198;-85
2023/04/11 09:50:38;;;;;;;9.05;1.50;;;9.40;99.90;;;;;;5054198;28;20041;-86
2023/04/11 09:53:09;;;;;;;7.90;1.98;;;9.70;99.90;;;;;;5047345;28;20491;-85
2023/04/11 09:55:38;;;;;;;7.35;1.92;;;10.00;99.90;;;;;;5048416;28;20028;-86
2023/04/11 09:58:06;;;;;;;7.40;1.25;;;10.10;99.90;;;;;;5049580;28;20060;-86
2023/04/11 10:00:32;;;;;;;9.48;1.48;;;10.20;99.90;;;;;;5047109;28;20052;-85
2023/04/11 10:02:58;;;;;;;8.82;1.55;;;10.30;99.90;;;;;;5049406;28;20417;-85
2023/04/11 10:05:29;;;;;;;9.68;2.15;;;10.50;99.90;;;;;;5052200;28;20123;-85
2023/04/11 10:08:00;;;;;;;6.25;1.15;;;10.70;99.90;;;;;;5048372;28;20120;-84
2023/04/11 10:10:26;;;;;;;8.35;1.25;;;10.60;99.90;;;;;;5047213;28;20080;-86
2023/04/11 10:12:52;;;;;;;13.50;2.13;;;10.70;99.90;;;;;;5028593;28;20047;-87
2023/04/11 10:15:18;;;;;;;7.30;1.52;;;10.70;99.90;;;;;;5045169;28;20041;-86
2023/04/11 10:18:10;;;;;;;13.00;2.30;;;10.90;99.90;;;;;;5032936;28;20044;-86
2023/04/11 10:20:43;;;;;;;8.73;1.95;;;10.90;99.90;;;;;;5021114;28;20550;-86
2023/04/11 10:23:11;;;;;;;10.25;1.40;;;11.00;99.90;;;;;;5046501;28;20060;-87
2023/04/11 10:26:00;;;;;;;7.45;1.48;;;11.20;99.90;;;;;;5049850;28;20040;-87
2023/04/11 10:28:37;;;;;;;9.35;1.40;;;11.30;99.90;;;;;;5051793;28;20047;-87
2023/04/11 10:31:12;;;;;;;6.85;1.17;;;11.40;99.90;;;;;;5046237;28;20055;-86
2023/04/11 10:33:39;;;;;;;8.32;1.27;;;11.30;99.90;;;;;;5053123;28;20498;-86
2023/04/11 10:36:10;;;;;;;9.73;1.58;;;11.20;99.90;;;;;;5050559;28;20051;-89
2023/04/11 10:38:47;;;;;;;12.25;1.50;;;11.40;99.90;;;;;;5055174;28;20051;-93
2023/04/11 10:41:24;;;;;;;7.88;1.45;;;11.50;99.90;;;;;;5032878;28;20061;-88
2023/04/11 10:44:03;;;;;;;3.17;0.60;;;11.50;99.90;;;;;;5050325;28;20123;-86
2023/04/11 10:46:29;;;;;;;3.13;0.60;;;11.10;99.90;;;;;;5045132;28;20744;-87
2023/04/11 10:49:01;;;;;;;4.13;0.95;;;10.70;99.90;;;;;;5045508;28;20067;-88
2023/04/11 10:51:29;;;;;;;4.13;0.70;;;10.30;99.90;;;;;;5051728;28;20072;-87
2023/04/11 10:53:58;;;;;;;2.65;0.52;;;10.00;99.90;;;;;;5045372;28;20095;-88
2023/04/11 10:56:41;;;;;;;6.32;0.80;;;9.70;99.90;;;;;;5036318;28;20037;-87
2023/04/11 10:59:30;;;;;;;5.30;0.73;;;9.50;99.90;;;;;;5047887;28;20592;-88
2023/04/11 11:01:57;;;;;;;3.83;0.75;;;9.30;99.90;;;;;;5047030;28;20318;-88
2023/04/11 11:04:37;;;;;;;4.85;0.70;;;9.20;99.90;;;;;;5031466;28;20139;-86
2023/04/11 11:07:05;;;;;;;7.45;0.98;;;9.10;99.90;;;;;;5044261;28;20036;-89
2023/04/11 11:09:32;;;;;;;5.57;0.90;;;9.10;99.90;;;;;;5046306;28;20086;-87
2023/04/11 11:12:12;;;;;;;6.45;1.13;;;9.10;99.90;;;;;;5048920;28;20051;-86
2023/04/11 11:14:40;;;;;;;6.28;1.20;;;9.10;99.90;;;;;;5047775;28;20118;-87
2023/04/11 11:17:07;;;;;;;5.40;1.45;;;9.00;99.90;;;;;;5068892;28;20121;-88
2023/04/11 11:19:36;;;;;;;6.93;1.08;;;8.90;99.90;;;;;;5051901;28;20044;-88
2023/04/11 11:22:03;;;;;;;10.15;1.67;;;8.90;99.90;;;;;;5064851;28;20293;-87
2023/04/11 11:24:29;;;;;;;7.10;0.85;;;8.70;99.90;;;;;;5048868;28;20052;-89
2023/04/11 11:26:56;;;;;;;7.60;1.25;;;8.60;99.90;;;;;;5047968;28;20040;-88
2023/04/11 11:29:49;;;;;;;11.07;1.48;;;8.50;99.90;;;;;;5064771;28;20083;-86
2023/04/11 11:32:27;;;;;;;8.25;1.17;;;8.60;99.90;;;;;;5042567;28;20056;-88
2023/04/11 11:34:53;;;;;;;4.85;0.90;;;8.50;99.90;;;;;;5053990;28;20123;-88
2023/04/11 11:37:19;;;;;;;6.00;1.13;;;8.50;99.90;;;;;;5053406;28;20043;-86
2023/04/11 11:39:47;;;;;;;4.60;0.70;;;8.40;99.90;;;;;;5053895;28;20052;-86
2023/04/11 11:42:13;;;;;;;6.70;1.10;;;8.40;99.90;;;;;;5046558;28;20036;-86
2023/04/11 11:44:39;;;;;;;4.45;1.23;;;8.60;99.90;;;;;;5052962;28;20050;-86
2023/04/11 11:47:16;;;;;;;4.78;0.90;;;8.70;99.90;;;;;;5051906;28;20048;-87
2023/04/11 11:49:49;;;;;;;6.85;1.08;;;8.90;99.90;;;;;;5052622;28;20047;-84
2023/04/11 11:52:32;;;;;;;4.30;0.98;;;9.00;99.90;;;;;;5052798;28;20041;-85
2023/04/11 11:54:59;;;;;;;5.75;1.00;;;8.90;99.90;;;;;;5049106;28;20048;-86
2023/04/11 11:57:42;;;;;;;11.38;1.20;;;8.90;99.90;;;;;;5036474;28;20569;-86
2023/04/11 12:00:09;;;;;;;11.23;1.00;;;8.80;99.90;;;;;;5053062;28;20048;-88
2023/04/11 12:02:35;;;;;;;7.20;1.25;;;8.60;99.90;;;;;;5033583;28;20460;-85
2023/04/11 12:05:04;;;;;;;9.60;1.15;;;8.60;99.90;;;;;;5051503;28;20048;-85
2023/04/11 12:07:32;;;;;;;7.75;1.10;;;8.70;99.90;;;;;;5044427;28;20053;-85
2023/04/11 12:10:02;;;;;;;10.50;1.20;;;8.50;99.90;;;;;;5067715;28;20059;-86
2023/04/11 12:12:35;;;;;;;14.50;1.55;;;8.60;99.90;;;;;;5071053;28;20035;-84
2023/04/11 12:15:10;;;;;;;9.65;1.55;;;8.80;99.90;;;;;;5064671;28;20032;-86
2023/04/11 12:17:36;;;;;;;8.15;1.50;;;9.00;99.90;;;;;;5043394;28;20381;-85
2023/04/11 12:20:06;;;;;;;9.85;1.60;;;9.10;99.90;;;;;;5051195;28;20668;-87
2023/04/11 12:22:32;;;;;;;12.48;2.33;;;9.10;99.90;;;;;;5044657;28;20060;-85
2023/04/11 12:25:09;;;;;;;11.48;2.35;;;9.30;99.90;;;;;;5070150;28;20046;-92
2023/04/11 12:27:39;;;;;;;7.20;1.48;;;9.50;99.90;;;;;;5063400;28;20044;-94
2023/04/11 12:30:10;;;;;;;7.88;2.33;;;9.90;99.90;;;;;;5076917;28;20044;-94
2023/04/11 12:32:36;;;;;;;10.73;1.33;;;10.20;99.90;;;;;;5077378;28;20210;-93
2023/04/11 12:35:04;;;;;;;14.77;1.80;;;11.10;99.90;;;;;;5056151;28;20091;-93
2023/04/11 12:37:30;;;;;;;8.68;1.90;;;10.70;99.90;;;;;;5066009;28;20593;-91
2023/04/11 12:39:55;;;;;;;10.73;2.00;;;10.90;99.90;;;;;;5065804;28;20071;-94
2023/04/11 12:42:22;;;;;;;12.57;1.55;;;11.10;99.90;;;;;;5080517;28;20074;-91
2023/04/11 12:44:52;;;;;;;14.20;1.55;;;11.20;99.90;;;;;;5071543;28;20070;-83
2023/04/11 12:47:17;;;;;;;9.40;1.27;;;11.20;99.90;;;;;;5065494;28;20671;-85
2023/04/11 12:49:43;;;;;;;8.30;1.40;;;11.00;99.90;;;;;;5048795;28;20047;-82
2023/04/11 12:52:09;;;;;;;9.13;1.30;;;10.90;99.90;;;;;;5050397;28;20376;-85
2023/04/11 12:54:35;;;;;;;11.30;1.63;;;10.90;99.90;;;;;;5053673;28;20119;-82